Time;durP1;ratioP1;P1;durP2;ratioP2;P2;SDS_P1;SDS_P2;PMS_P1;PMS_P2;Temp;Humidity;BMP_temperature;BMP_pressure;BME280_temperature;BME280_humidity;BME280_pressure;Samples;Min_cycle;Max_cycle;Signal;HPM_P1;HPM_P2
2022/07/02 00:02:18;;;;;;;;;;;13.10;99.90;;;;;;4803214;29;20363;-70
2022/07/02 00:04:46;;;;;;;;;;;13.10;99.90;;;;;;4790364;29;19990;-72
2022/07/02 00:07:12;;;;;;;;;;;13.10;99.90;;;;;;4803637;29;20298;-70
2022/07/02 00:09:37;;;;;;;;;;;13.10;99.90;;;;;;4802881;29;19925;-69
2022/07/02 00:12:03;;;;;;;;;;;13.10;99.90;;;;;;4790905;29;20372;-71
2022/07/02 00:14:29;;;;;;;;;;;13.00;99.90;;;;;;4779148;30;19926;-69
2022/07/02 00:16:55;;;;;;;;;;;12.90;99.90;;;;;;4788756;29;19937;-71
2022/07/02 00:19:21;;;;;;;;;;;12.90;99.90;;;;;;4765597;30;19937;-69
2022/07/02 00:21:47;;;;;;;;;;;12.90;99.90;;;;;;4772622;30;20013;-69
2022/07/02 00:24:12;;;;;;;;;;;13.00;99.90;;;;;;4788645;29;19933;-70
2022/07/02 00:26:39;;;;;;;;;;;12.90;99.90;;;;;;4802440;29;19940;-71
2022/07/02 00:29:14;;;;;;;;;;;12.80;99.90;;;;;;4787548;29;19932;-71
2022/07/02 00:31:40;;;;;;;;;;;12.80;99.90;;;;;;4771119;30;19974;-70
2022/07/02 00:34:05;;;;;;;;;;;12.80;99.90;;;;;;4779030;29;20298;-71
2022/07/02 00:36:32;;;;;;;;;;;12.80;99.90;;;;;;4803406;29;19933;-71
2022/07/02 00:38:57;;;;;;;;;;;12.70;99.90;;;;;;4791081;29;19976;-71
2022/07/02 00:41:24;;;;;;;;;;;12.80;99.90;;;;;;4777008;30;20043;-69
2022/07/02 00:43:50;;;;;;;;;;;12.70;99.90;;;;;;4785869;30;19933;-69
2022/07/02 00:46:17;;;;;;;;;;;12.60;99.90;;;;;;4788609;29;19925;-71
2022/07/02 00:48:43;;;;;;;;;;;12.60;99.90;;;;;;4788614;29;20363;-69
2022/07/02 00:51:08;;;;;;;;;;;12.60;99.90;;;;;;4797462;29;19932;-69
2022/07/02 00:53:34;;;;;;;;;;;12.50;99.90;;;;;;4778083;30;19926;-70
2022/07/02 00:55:59;;;;;;;;;;;12.60;99.90;;;;;;4788831;29;19926;-70
2022/07/02 00:58:25;;;;;;;;;;;12.50;99.90;;;;;;4785630;30;20380;-70
2022/07/02 01:00:51;;;;;;;;;;;12.50;99.90;;;;;;4785735;30;19926;-71
2022/07/02 01:03:18;;;;;;;;;;;12.50;99.90;;;;;;4756806;30;19975;-69
2022/07/02 01:05:43;;;;;;;;;;;12.50;99.90;;;;;;4788264;30;19933;-71
2022/07/02 01:10:54;;;;;;;;;;;12.50;99.90;;;;;;4780358;30;19926;-71
2022/07/02 01:13:19;;;;;;;;;;;12.60;99.90;;;;;;4778482;30;20383;-72
2022/07/02 01:15:45;;;;;;;;;;;12.40;99.90;;;;;;4770299;30;19930;-70
2022/07/02 01:18:17;;;;;;;;;;;12.70;99.90;;;;;;4780379;30;19925;-72
2022/07/02 01:20:46;;;;;;;;;;;12.40;99.90;;;;;;4787840;29;19929;-70
2022/07/02 01:23:11;;;;;;;;;;;12.40;99.90;;;;;;4787510;29;19929;-71
2022/07/02 01:25:37;;;;;;;;;;;12.40;99.90;;;;;;4772229;30;19982;-71
2022/07/02 01:28:02;;;;;;;;;;;12.40;99.90;;;;;;4785498;30;19998;-72
2022/07/02 01:30:28;;;;;;;;;;;12.40;99.90;;;;;;4788265;29;19933;-70
2022/07/02 01:32:53;;;;;;;;;;;12.40;99.90;;;;;;4776134;29;19933;-71
2022/07/02 01:35:19;;;;;;;;;;;12.40;99.90;;;;;;4771580;30;19982;-69
2022/07/02 01:37:44;;;;;;;;;;;12.40;99.90;;;;;;4774665;30;19925;-71
2022/07/02 01:40:10;;;;;;;;;;;12.40;99.90;;;;;;4786880;30;19932;-71
2022/07/02 01:42:36;;;;;;;;;;;12.50;99.90;;;;;;4787374;29;19948;-71
2022/07/02 01:45:02;;;;;;;;;;;12.30;99.90;;;;;;4787369;30;19955;-70
2022/07/02 01:47:28;;;;;;;;;;;12.30;99.90;;;;;;4786488;30;19926;-69
2022/07/02 01:49:53;;;;;;;;;;;12.20;99.90;;;;;;4788600;29;20016;-69
2022/07/02 01:52:19;;;;;;;;;;;12.30;99.90;;;;;;4786663;30;19925;-69
2022/07/02 01:54:45;;;;;;;;;;;12.30;99.90;;;;;;4787046;30;19932;-70
2022/07/02 01:57:11;;;;;;;;;;;12.30;99.90;;;;;;4786736;29;19925;-70
2022/07/02 01:59:37;;;;;;;;;;;12.20;99.90;;;;;;4800141;29;20418;-70
2022/07/02 02:02:03;;;;;;;;;;;12.20;99.90;;;;;;4772061;30;19937;-72
2022/07/02 02:04:28;;;;;;;;;;;12.20;99.90;;;;;;4770077;30;19926;-70
2022/07/02 02:06:54;;;;;;;;;;;12.20;99.90;;;;;;4769175;30;20403;-71
2022/07/02 02:09:19;;;;;;;;;;;12.20;99.90;;;;;;4773391;30;19971;-71
2022/07/02 02:11:45;;;;;;;;;;;12.20;99.90;;;;;;4801326;29;19960;-70
2022/07/02 02:14:11;;;;;;;;;;;12.20;99.90;;;;;;4787665;29;19925;-70
2022/07/02 02:16:36;;;;;;;;;;;12.20;99.90;;;;;;4773988;30;20378;-69
2022/07/02 02:19:02;;;;;;;;;;;12.20;99.90;;;;;;4769582;30;20591;-71
2022/07/02 02:21:28;;;;;;;;;;;12.20;99.90;;;;;;4782311;30;19948;-71
2022/07/02 02:23:54;;;;;;;;;;;12.20;99.90;;;;;;4787224;30;20016;-69
2022/07/02 02:26:20;;;;;;;;;;;12.10;99.90;;;;;;4785997;30;20059;-70
2022/07/02 02:28:45;;;;;;;;;;;12.10;99.90;;;;;;4787183;30;20020;-69
2022/07/02 02:31:11;;;;;;;;;;;12.10;99.90;;;;;;4760161;30;19932;-69
2022/07/02 02:33:37;;;;;;;;;;;12.10;99.90;;;;;;4769864;30;19944;-71
2022/07/02 02:36:02;;;;;;;;;;;12.10;99.90;;;;;;4788094;30;19936;-71
2022/07/02 02:38:28;;;;;;;;;;;12.10;99.90;;;;;;4789593;29;19932;-71
2022/07/02 02:40:53;;;;;;;;;;;12.00;99.90;;;;;;4769421;30;19929;-71
2022/07/02 02:43:19;;;;;;;;;;;12.10;99.90;;;;;;4787032;30;19978;-69
2022/07/02 02:45:44;;;;;;;;;;;12.10;99.90;;;;;;4785913;30;20033;-71
2022/07/02 02:48:10;;;;;;;;;;;12.00;99.90;;;;;;4771427;29;19969;-71
2022/07/02 02:50:35;;;;;;;;;;;12.10;99.90;;;;;;4786563;30;19936;-69
2022/07/02 02:53:01;;;;;;;;;;;12.00;99.90;;;;;;4785903;29;19925;-70
2022/07/02 02:55:27;;;;;;;;;;;12.00;99.90;;;;;;4784136;30;19979;-71
2022/07/02 02:57:52;;;;;;;;;;;12.00;99.90;;;;;;4787426;29;19933;-70
2022/07/02 03:00:18;;;;;;;;;;;12.00;99.90;;;;;;4786292;29;20016;-70
2022/07/02 03:02:43;;;;;;;;;;;12.00;99.90;;;;;;4802609;29;20355;-69
2022/07/02 03:05:09;;;;;;;;;;;12.00;99.90;;;;;;4787002;29;20379;-70
2022/07/02 03:07:34;;;;;;;;;;;12.00;99.90;;;;;;4786988;29;19932;-69
2022/07/02 03:10:00;;;;;;;;;;;12.00;99.90;;;;;;4785537;30;19926;-70
2022/07/02 03:12:25;;;;;;;;;;;11.90;99.90;;;;;;4785195;29;19932;-69
2022/07/02 03:14:51;;;;;;;;;;;11.90;99.90;;;;;;4801471;29;19925;-68
2022/07/02 03:17:17;;;;;;;;;;;11.90;99.90;;;;;;4800435;29;20049;-71
2022/07/02 03:19:43;;;;;;;;;;;11.90;99.90;;;;;;4785831;30;19933;-69
2022/07/02 03:22:09;;;;;;;;;;;11.90;99.90;;;;;;4786064;30;19929;-70
2022/07/02 03:24:34;;;;;;;;;;;11.90;99.90;;;;;;4771751;30;19948;-69
2022/07/02 03:26:59;;;;;;;;;;;11.90;99.90;;;;;;4785607;29;19925;-70
2022/07/02 03:29:25;;;;;;;;;;;11.90;99.90;;;;;;4793342;29;19959;-71
2022/07/02 03:31:51;;;;;;;;;;;11.90;99.90;;;;;;4773129;29;19930;-71
2022/07/02 03:34:16;;;;;;;;;;;11.80;99.90;;;;;;4786058;29;19944;-69
2022/07/02 03:36:41;;;;;;;;;;;11.90;99.90;;;;;;4787329;29;20328;-68
2022/07/02 03:39:07;;;;;;;;;;;11.90;99.90;;;;;;4771932;29;20000;-72
2022/07/02 03:41:32;;;;;;;;;;;11.90;99.90;;;;;;4787213;29;19929;-71
2022/07/02 03:43:58;;;;;;;;;;;11.90;99.90;;;;;;4786452;29;19925;-71
2022/07/02 03:46:23;;;;;;;;;;;11.80;99.90;;;;;;4784638;29;20062;-70
2022/07/02 03:48:49;;;;;;;;;;;11.90;99.90;;;;;;4783138;29;19925;-71
2022/07/02 03:51:15;;;;;;;;;;;11.90;99.90;;;;;;4778024;29;19983;-71
2022/07/02 03:53:41;;;;;;;;;;;11.90;99.90;;;;;;4789709;29;20038;-69
2022/07/02 03:56:06;;;;;;;;;;;11.90;99.90;;;;;;4788618;29;20016;-71
2022/07/02 03:58:32;;;;;;;;;;;11.90;99.90;;;;;;4789767;29;19925;-70
2022/07/02 04:00:57;;;;;;;;;;;11.90;99.90;;;;;;4799637;29;19925;-70
2022/07/02 04:03:23;;;;;;;;;;;11.90;99.90;;;;;;4804240;29;19948;-72
2022/07/02 04:05:48;;;;;;;;;;;11.90;99.90;;;;;;4804576;29;20012;-72
2022/07/02 04:08:14;;;;;;;;;;;12.00;99.90;;;;;;4789547;29;19932;-70
2022/07/02 04:10:40;;;;;;;;;;;12.00;99.90;;;;;;4789625;29;20394;-70
2022/07/02 04:13:05;;;;;;;;;;;12.00;99.90;;;;;;4787107;29;20004;-72
2022/07/02 04:15:30;;;;;;;;;;;12.00;99.90;;;;;;4782664;29;19926;-71
2022/07/02 04:17:56;;;;;;;;;;;12.10;99.90;;;;;;4772641;29;19926;-70
2022/07/02 04:20:22;;;;;;;;;;;12.10;99.90;;;;;;4774245;30;19935;-71
2022/07/02 04:22:47;;;;;;;;;;;12.10;99.90;;;;;;4774368;30;20016;-70
2022/07/02 04:25:13;;;;;;;;;;;12.20;99.90;;;;;;4777372;29;19999;-72
2022/07/02 04:27:38;;;;;;;;;;;12.20;99.90;;;;;;4775839;29;20011;-70
2022/07/02 04:30:04;;;;;;;;;;;12.20;99.90;;;;;;4786733;29;20423;-71
2022/07/02 04:32:29;;;;;;;;;;;12.30;99.90;;;;;;4773896;30;19932;-71
2022/07/02 04:34:55;;;;;;;;;;;12.30;99.90;;;;;;4774418;30;19925;-71
2022/07/02 04:37:21;;;;;;;;;;;12.40;99.90;;;;;;4774451;30;19925;-70
2022/07/02 04:39:46;;;;;;;;;;;12.40;99.90;;;;;;4774314;29;19979;-70
2022/07/02 04:42:11;;;;;;;;;;;12.40;99.90;;;;;;4780329;30;19925;-70
2022/07/02 04:44:37;;;;;;;;;;;12.50;99.90;;;;;;4789140;29;19933;-72
2022/07/02 04:47:02;;;;;;;;;;;12.50;99.90;;;;;;4773487;30;20069;-71
2022/07/02 04:49:28;;;;;;;;;;;12.60;99.90;;;;;;4784186;29;19925;-69
2022/07/02 04:51:54;;;;;;;;;;;12.60;99.90;;;;;;4808208;29;19982;-70
2022/07/02 04:54:19;;;;;;;;;;;12.70;99.90;;;;;;4806003;29;20315;-72
2022/07/02 04:56:45;;;;;;;;;;;12.70;99.90;;;;;;4803571;29;19990;-71
2022/07/02 04:59:10;;;;;;;;;;;12.90;99.90;;;;;;4803319;29;19925;-70
2022/07/02 05:01:36;;;;;;;;;;;12.90;99.90;;;;;;4764480;29;19925;-72
2022/07/02 05:04:02;;;;;;;;;;;12.90;99.90;;;;;;4799940;29;20033;-72
2022/07/02 05:06:27;;;;;;;;;;;13.00;99.90;;;;;;4781222;29;19968;-72
2022/07/02 05:08:53;;;;;;;;;;;13.00;99.90;;;;;;4785869;29;19936;-73
2022/07/02 05:11:19;;;;;;;;;;;13.10;99.90;;;;;;4791814;29;19929;-71
2022/07/02 05:13:45;;;;;;;;;;;13.20;99.90;;;;;;4791095;29;19931;-70
2022/07/02 05:16:11;;;;;;;;;;;13.20;99.90;;;;;;4790084;29;19975;-72
2022/07/02 05:18:36;;;;;;;;;;;13.30;99.90;;;;;;4789523;29;19976;-72
2022/07/02 05:21:02;;;;;;;;;;;13.30;99.90;;;;;;4805645;29;20287;-73
2022/07/02 05:23:27;;;;;;;;;;;13.50;99.90;;;;;;4804200;29;19982;-72
2022/07/02 05:25:53;;;;;;;;;;;13.60;99.90;;;;;;4806263;29;19933;-71
2022/07/02 05:28:18;;;;;;;;;;;13.90;99.90;;;;;;4805471;29;20397;-74
2022/07/02 05:30:45;;;;;;;;;;;13.80;99.90;;;;;;4801244;29;19947;-68
2022/07/02 05:33:10;;;;;;;;;;;14.00;99.90;;;;;;4801358;29;20434;-69
2022/07/02 05:35:36;;;;;;;;;;;14.70;99.90;;;;;;4803637;29;19925;-70
2022/07/02 05:38:01;;;;;;;;;;;16.10;99.90;;;;;;4790124;29;19925;-68
2022/07/02 05:40:27;;;;;;;;;;;17.50;99.90;;;;;;4787456;29;20011;-68
2022/07/02 05:42:53;;;;;;;;;;;18.70;99.90;;;;;;4789240;29;19929;-70
2022/07/02 05:45:19;;;;;;;;;;;19.50;99.90;;;;;;4773098;29;19929;-72
2022/07/02 05:47:45;;;;;;;;;;;20.10;99.90;;;;;;4797681;29;19932;-72
2022/07/02 05:50:11;;;;;;;;;;;20.70;99.90;;;;;;4790117;29;19925;-72
2022/07/02 05:52:37;;;;;;;;;;;21.20;99.90;;;;;;4775516;29;19933;-69
2022/07/02 05:55:03;;;;;;;;;;;21.60;99.90;;;;;;4789835;29;19929;-70
2022/07/02 05:57:29;;;;;;;;;;;21.80;99.90;;;;;;4801359;29;19925;-69
2022/07/02 05:59:55;;;;;;;;;;;21.80;99.90;;;;;;4805571;29;20220;-70
2022/07/02 06:02:21;;;;;;;;;;;22.00;99.90;;;;;;4790651;29;19925;-70
2022/07/02 06:04:46;;;;;;;;;;;22.00;99.90;;;;;;4783072;29;19952;-72
2022/07/02 06:09:56;;;;;;;;;;;22.30;99.90;;;;;;4806159;29;20248;-70
2022/07/02 06:12:22;;;;;;;;;;;22.40;99.90;;;;;;4789774;29;20016;-72
2022/07/02 06:14:47;;;;;;;;;;;22.50;99.90;;;;;;4804904;29;19960;-72
2022/07/02 06:17:13;;;;;;;;;;;22.80;99.90;;;;;;4805160;29;19936;-70
2022/07/02 06:19:44;;;;;;;;;;;23.10;99.90;;;;;;4791175;29;19925;-70
2022/07/02 06:22:18;;;;;;;;;;;23.20;99.90;;;;;;4784779;29;19928;-73
2022/07/02 06:24:45;;;;;;;;;;;23.60;99.90;;;;;;4801770;29;19925;-71
2022/07/02 06:27:11;;;;;;;;;;;23.50;99.90;;;;;;4786933;30;19928;-70
2022/07/02 06:29:36;;;;;;;;;;;23.30;94.30;;;;;;4802125;29;19979;-71
2022/07/02 06:32:02;;;;;;;;;;;23.50;99.90;;;;;;4801628;29;20026;-72
2022/07/02 06:34:28;;;;;;;;;;;23.60;99.90;;;;;;4799358;29;20302;-72
2022/07/02 06:36:53;;;;;;;;;;;23.70;99.90;;;;;;4786947;29;20009;-70
2022/07/02 06:39:19;;;;;;;;;;;23.60;90.70;;;;;;4786146;30;19925;-72
2022/07/02 06:44:28;;;;;;;;;;;23.30;99.30;;;;;;4788137;30;20005;-70
2022/07/02 06:46:57;;;;;;;;;;;22.20;96.50;;;;;;4785332;29;20090;-72
2022/07/02 06:49:25;;;;;;;;;;;21.40;99.90;;;;;;4783923;29;19926;-72
2022/07/02 06:51:51;;;;;;;;;;;20.60;99.90;;;;;;4801217;29;19928;-72
2022/07/02 06:54:16;;;;;;;;;;;20.20;99.90;;;;;;4784452;29;20307;-72
2022/07/02 06:56:43;;;;;;;;;;;19.70;99.90;;;;;;4768798;30;19922;-71
2022/07/02 06:59:11;;;;;;;;;;;19.50;99.90;;;;;;4754479;30;20310;-71
2022/07/02 07:01:36;;;;;;;;;;;19.30;99.90;;;;;;4769167;30;19982;-72
2022/07/02 07:04:02;;;;;;;;;;;19.20;99.90;;;;;;4776399;30;19925;-70
2022/07/02 07:07:10;;;;;;;;;;;19.20;99.90;;;;;;4787247;29;19967;-73
2022/07/02 07:09:16;;;;;;;;;;;19.20;99.90;;;;;;4783676;29;19932;-69
2022/07/02 07:11:41;;;;;;;;;;;19.20;99.90;;;;;;4786449;29;19937;-69
2022/07/02 07:14:07;;;;;;;;;;;19.30;99.90;;;;;;4786683;29;20016;-73
2022/07/02 07:16:32;;;;;;;;;;;19.30;99.90;;;;;;4782276;29;19926;-69
2022/07/02 07:18:59;;;;;;;;;;;19.40;99.90;;;;;;4768695;30;19925;-70
2022/07/02 07:21:25;;;;;;;;;;;19.40;99.90;;;;;;4754217;30;19929;-71
2022/07/02 07:23:50;;;;;;;;;;;19.40;99.90;;;;;;4768985;30;19949;-71
2022/07/02 07:26:16;;;;;;;;;;;19.50;99.90;;;;;;4769705;30;19933;-73
2022/07/02 07:28:41;;;;;;;;;;;19.50;99.90;;;;;;4772315;30;19975;-71
2022/07/02 07:31:07;;;;;;;;;;;19.70;99.90;;;;;;4772627;30;19925;-71
2022/07/02 07:33:32;;;;;;;;;;;19.70;99.90;;;;;;4771898;30;19944;-68
2022/07/02 07:35:58;;;;;;;;;;;19.70;99.90;;;;;;4772510;30;20008;-71
2022/07/02 07:38:24;;;;;;;;;;;19.80;99.90;;;;;;4772448;30;19932;-70
2022/07/02 07:40:49;;;;;;;;;;;20.00;99.90;;;;;;4772765;30;19975;-68
2022/07/02 07:43:15;;;;;;;;;;;19.90;99.90;;;;;;4776566;30;19972;-71
2022/07/02 07:45:40;;;;;;;;;;;20.10;99.90;;;;;;4789571;29;19929;-70
2022/07/02 07:48:06;;;;;;;;;;;20.10;99.90;;;;;;4788868;30;19941;-71
2022/07/02 07:50:31;;;;;;;;;;;20.30;99.90;;;;;;4786581;29;19926;-70
2022/07/02 07:52:57;;;;;;;;;;;20.20;99.90;;;;;;4786859;29;19975;-71
2022/07/02 07:55:22;;;;;;;;;;;20.20;99.90;;;;;;4771856;30;20020;-70
2022/07/02 07:57:51;;;;;;;;;;;20.00;99.90;;;;;;4772392;30;19925;-72
2022/07/02 08:00:16;;;;;;;;;;;20.00;99.90;;;;;;4787226;29;19999;-71
2022/07/02 08:02:42;;;;;;;;;;;20.10;99.90;;;;;;4771221;30;20367;-72
2022/07/02 08:05:08;;;;;;;;;;;20.20;99.90;;;;;;4775532;29;19932;-71
2022/07/02 08:07:37;;;;;;;;;;;20.20;99.90;;;;;;4771641;30;20333;-70
2022/07/02 08:10:04;;;;;;;;;;;20.20;99.90;;;;;;4756993;30;19930;-70
2022/07/02 08:12:29;;;;;;;;;;;20.40;99.90;;;;;;4771893;30;19948;-72
2022/07/02 08:14:55;;;;;;;;;;;20.50;99.90;;;;;;4773018;30;20376;-73
2022/07/02 08:17:20;;;;;;;;;;;20.60;99.90;;;;;;4756218;30;19926;-71
2022/07/02 08:19:46;;;;;;;;;;;20.60;99.90;;;;;;4762328;30;19925;-71
2022/07/02 08:22:11;;;;;;;;;;;20.60;99.90;;;;;;4790697;29;20008;-72
2022/07/02 08:24:36;;;;;;;;;;;20.70;99.90;;;;;;4786841;30;20388;-70
2022/07/02 08:27:02;;;;;;;;;;;20.90;98.40;;;;;;4772234;30;19933;-71
2022/07/02 08:29:28;;;;;;;;;;;21.00;99.90;;;;;;4789305;29;20120;-72
2022/07/02 08:31:53;;;;;;;;;;;20.90;99.90;;;;;;4788747;30;19986;-71
2022/07/02 08:34:19;;;;;;;;;;;21.00;98.90;;;;;;4789363;29;20272;-72
2022/07/02 08:36:44;;;;;;;;;;;21.20;95.80;;;;;;4784123;30;19930;-71
2022/07/02 08:39:36;;;;;;;;;;;21.50;94.00;;;;;;4782988;29;19932;-70
2022/07/02 08:42:03;;;;;;;;;;;21.30;99.90;;;;;;4791705;29;19933;-71
2022/07/02 08:44:31;;;;;;;;;;;21.30;92.70;;;;;;4777814;30;20359;-71
2022/07/02 08:46:58;;;;;;;;;;;21.40;92.50;;;;;;4779006;30;19929;-72
2022/07/02 08:49:26;;;;;;;;;;;21.50;96.60;;;;;;4781950;29;19934;-71
2022/07/02 08:52:03;;;;;;;;;;;21.60;93.00;;;;;;4780677;29;19932;-69
2022/07/02 08:54:30;;;;;;;;;;;21.50;87.60;;;;;;4777742;29;19982;-70
2022/07/02 08:56:58;;;;;;;;;;;21.50;85.80;;;;;;4764998;30;19989;-74
2022/07/02 08:59:24;;;;;;;;;;;21.40;93.80;;;;;;4781232;30;19930;-72
2022/07/02 09:01:50;;;;;;;;;;;21.50;96.70;;;;;;4778441;29;19930;-69
2022/07/02 09:04:17;;;;;;;;;;;21.70;98.50;;;;;;4779702;29;20378;-70
2022/07/02 09:07:08;;;;;;;;;;;21.70;97.50;;;;;;4777848;30;20453;-70
2022/07/02 09:09:33;;;;;;;;;;;21.70;92.20;;;;;;4783403;30;19925;-72
2022/07/02 09:12:00;;;;;;;;;;;21.60;77.40;;;;;;4788593;29;19940;-70
2022/07/02 09:14:27;;;;;;;;;;;21.60;77.30;;;;;;4788318;29;20371;-70
2022/07/02 09:16:52;;;;;;;;;;;21.70;74.40;;;;;;4772218;30;20001;-69
2022/07/02 09:19:18;;;;;;;;;;;21.70;93.00;;;;;;4798295;29;20016;-68
2022/07/02 09:21:48;;;;;;;;;;;21.90;86.50;;;;;;4791046;29;19933;-69
2022/07/02 09:24:44;;;;;;;;;;;21.90;81.00;;;;;;4773346;29;19921;-69
2022/07/02 09:27:11;;;;;;;;;;;22.00;78.20;;;;;;4790920;29;19925;-71
2022/07/02 09:30:06;;;;;;;;;;;22.00;90.30;;;;;;4807372;29;19929;-70
2022/07/02 09:35:52;;;;;;;;;;;22.20;69.80;;;;;;4781126;29;20458;-70
2022/07/02 09:38:17;;;;;;;;;;;22.40;83.50;;;;;;4797464;29;20016;-70
2022/07/02 09:40:52;;;;;;;;;;;22.40;71.00;;;;;;4768690;29;20312;-70
2022/07/02 09:43:27;;;;;;;;;;;22.40;75.00;;;;;;4783496;29;19925;-70
2022/07/02 09:45:54;;;;;;;;;;;22.50;90.60;;;;;;4796882;29;20376;-68
2022/07/02 09:48:22;;;;;;;;;;;22.50;64.90;;;;;;4781490;29;19971;-69
2022/07/02 09:50:48;;;;;;;;;;;22.60;76.10;;;;;;4781374;29;20340;-70
2022/07/02 09:53:15;;;;;;;;;;;22.60;64.70;;;;;;4804169;29;19925;-69
2022/07/02 09:55:40;;;;;;;;;;;22.50;66.20;;;;;;4806635;29;20023;-71
2022/07/02 09:58:06;;;;;;;;;;;22.70;79.20;;;;;;4773220;29;20016;-69
2022/07/02 10:00:32;;;;;;;;;;;22.80;73.40;;;;;;4790368;29;19933;-68
2022/07/02 10:02:59;;;;;;;;;;;22.90;67.30;;;;;;4786670;29;19972;-69
2022/07/02 10:05:27;;;;;;;;;;;22.80;65.40;;;;;;4786430;29;20393;-70
2022/07/02 10:07:53;;;;;;;;;;;22.90;83.10;;;;;;4795811;29;19979;-70
2022/07/02 10:10:45;;;;;;;;;;;22.80;61.30;;;;;;4789436;29;19925;-70
2022/07/02 10:13:11;;;;;;;;;;;22.90;63.90;;;;;;4790038;29;19925;-70
2022/07/02 10:15:39;;;;;;;;;;;23.00;67.40;;;;;;4797034;29;19925;-69
2022/07/02 10:18:05;;;;;;;;;;;23.20;66.90;;;;;;4779410;29;19925;-71
2022/07/02 10:20:32;;;;;;;;;;;23.20;63.10;;;;;;4797418;29;19929;-69
2022/07/02 10:22:58;;;;;;;;;;;23.30;99.90;;;;;;4777528;29;20303;-69
2022/07/02 10:25:24;;;;;;;;;;;23.40;70.50;;;;;;4779948;29;19926;-70
2022/07/02 10:27:51;;;;;;;;;;;23.60;71.80;;;;;;4781454;29;20005;-69
2022/07/02 10:30:20;;;;;;;;;;;23.60;63.00;;;;;;4781754;29;20299;-71
2022/07/02 10:32:54;;;;;;;;;;;23.50;62.80;;;;;;4781331;29;19960;-70
2022/07/02 10:35:22;;;;;;;;;;;23.40;69.50;;;;;;4797755;29;19925;-70
2022/07/02 10:37:47;;;;;;;;;;;23.20;71.90;;;;;;4785254;29;20275;-71
2022/07/02 10:40:18;;;;;;;;;;;23.20;91.60;;;;;;4797060;29;19936;-71
2022/07/02 10:42:50;;;;;;;;;;;22.90;66.60;;;;;;4765086;29;20014;-70
2022/07/02 10:45:17;;;;;;;;;;;22.90;75.80;;;;;;4789299;29;19925;-70
2022/07/02 10:48:03;;;;;;;;;;;22.70;70.40;;;;;;4796508;29;20092;-71
2022/07/02 10:50:38;;;;;;;;;;;22.70;70.10;;;;;;4794150;29;19921;-68
2022/07/02 10:53:06;;;;;;;;;;;22.50;71.10;;;;;;4787053;29;19969;-67
2022/07/02 11:06:29;;;;;;;;;;;22.00;91.70;;;;;;4765534;30;20311;-67
2022/07/02 11:08:55;;;;;;;;;;;22.00;87.30;;;;;;4752567;30;19921;-70
2022/07/02 11:17:37;;;;;;;;;;;22.50;76.40;;;;;;4752110;30;19922;-70
2022/07/02 11:20:16;;;;;;;;;;;22.60;81.60;;;;;;4752789;30;20394;-70
2022/07/02 11:22:46;;;;;;;;;;;22.40;90.10;;;;;;4738558;30;20052;-68
2022/07/02 11:25:13;;;;;;;;;;;22.50;90.50;;;;;;4734622;30;19926;-69
2022/07/02 11:34:56;;;;;;;;;;;22.80;77.50;;;;;;4775172;29;20370;-70
2022/07/02 11:44:30;;;;;;;;;;;23.00;71.80;;;;;;4772965;30;19929;-68
2022/07/02 11:46:57;;;;;;;;;;;23.20;65.90;;;;;;4786603;30;20012;-70
2022/07/02 11:49:27;;;;;;;;;;;22.90;67.90;;;;;;4788374;29;20086;-69
2022/07/02 11:51:54;;;;;;;;;;;23.00;88.10;;;;;;4789185;29;19921;-69
2022/07/02 11:54:20;;;;;;;;;;;22.80;76.50;;;;;;4799935;29;19993;-68
2022/07/02 11:56:46;;;;;;;;;;;22.80;83.10;;;;;;4780591;29;20377;-68
2022/07/02 11:59:12;;;;;;;;;;;23.10;79.60;;;;;;4800295;29;20021;-67
2022/07/02 12:01:39;;;;;;;;;;;23.10;71.00;;;;;;4799643;29;19926;-69
2022/07/02 12:04:05;;;;;;;;;;;23.00;68.80;;;;;;4787490;30;19952;-68
2022/07/02 12:06:31;;;;;;;;;;;22.90;87.50;;;;;;4787486;29;20012;-69
2022/07/02 12:08:57;;;;;;;;;;;23.00;81.90;;;;;;4790191;29;20004;-69
2022/07/02 12:11:23;;;;;;;;;;;23.00;74.50;;;;;;4789473;29;20005;-70
2022/07/02 12:13:49;;;;;;;;;;;23.20;76.70;;;;;;4807934;29;19972;-69
2022/07/02 12:16:16;;;;;;;;;;;23.20;63.20;;;;;;4808755;29;19925;-69
2022/07/02 12:18:42;;;;;;;;;;;23.40;64.10;;;;;;4808048;29;19929;-69
2022/07/02 12:21:12;;;;;;;;;;;23.60;72.20;;;;;;4806018;29;19925;-68
2022/07/02 12:23:44;;;;;;;;;;;23.70;65.10;;;;;;4784213;29;19955;-68
2022/07/02 12:26:35;;;;;;;;;;;23.70;78.60;;;;;;4783610;29;19925;-69
2022/07/02 12:32:26;;;;;;;;;;;23.50;66.90;;;;;;4797927;29;19921;-69
2022/07/02 12:34:56;;;;;;;;;;;23.20;63.60;;;;;;4768840;29;19921;-69
2022/07/02 12:37:26;;;;;;;;;;;23.10;63.30;;;;;;4790133;29;19964;-68
2022/07/02 12:39:58;;;;;;;;;;;23.00;78.70;;;;;;4790929;29;20416;-67
2022/07/02 12:42:24;;;;;;;;;;;23.10;69.40;;;;;;4792940;29;19968;-69
2022/07/02 12:44:54;;;;;;;;;;;23.20;76.10;;;;;;4808407;29;19925;-68
2022/07/02 12:47:27;;;;;;;;;;;23.40;79.00;;;;;;4806863;29;19931;-69
2022/07/02 12:49:54;;;;;;;;;;;23.70;71.90;;;;;;4800522;29;20453;-68
2022/07/02 12:52:19;;;;;;;;;;;23.60;71.00;;;;;;4804390;29;19968;-70
2022/07/02 12:54:45;;;;;;;;;;;23.70;68.10;;;;;;4800103;29;20359;-69
2022/07/02 12:57:11;;;;;;;;;;;23.60;66.50;;;;;;4806872;29;19925;-68
2022/07/02 12:59:37;;;;;;;;;;;23.60;66.60;;;;;;4807972;29;19925;-70
2022/07/02 13:02:03;;;;;;;;;;;23.60;74.30;;;;;;4807461;29;19990;-69
2022/07/02 13:04:28;;;;;;;;;;;23.60;68.50;;;;;;4791339;29;19925;-69
2022/07/02 13:06:54;;;;;;;;;;;23.50;66.30;;;;;;4790211;29;19982;-70
2022/07/02 13:09:21;;;;;;;;;;;23.60;87.30;;;;;;4791668;29;19983;-70
2022/07/02 13:11:47;;;;;;;;;;;23.60;65.90;;;;;;4791392;29;19967;-70
2022/07/02 13:14:31;;;;;;;;;;;23.50;69.40;;;;;;4791310;29;19976;-70
2022/07/02 13:16:57;;;;;;;;;;;23.60;84.50;;;;;;4806284;29;19921;-69
2022/07/02 13:19:22;;;;;;;;;;;23.90;98.20;;;;;;4807726;29;19929;-70
2022/07/02 13:21:48;;;;;;;;;;;24.10;75.00;;;;;;4791118;29;19925;-70
2022/07/02 13:24:14;;;;;;;;;;;24.40;69.60;;;;;;4805157;29;19935;-70
2022/07/02 13:26:39;;;;;;;;;;;24.40;69.60;;;;;;4787549;29;19978;-70
2022/07/02 13:29:05;;;;;;;;;;;24.60;65.80;;;;;;4794548;29;20288;-69
2022/07/02 13:31:32;;;;;;;;;;;24.50;69.40;;;;;;4798695;29;19925;-69
2022/07/02 13:33:59;;;;;;;;;;;24.40;69.70;;;;;;4791917;29;20398;-69
2022/07/02 13:36:24;;;;;;;;;;;24.30;66.80;;;;;;4773426;30;19925;-70
2022/07/02 13:38:50;;;;;;;;;;;24.20;65.90;;;;;;4772963;30;19921;-69
2022/07/02 13:41:15;;;;;;;;;;;24.00;70.90;;;;;;4791452;29;20005;-71
2022/07/02 13:43:41;;;;;;;;;;;24.10;92.50;;;;;;4780851;29;19957;-70
2022/07/02 13:46:06;;;;;;;;;;;24.00;62.40;;;;;;4782452;29;19926;-69
2022/07/02 13:48:32;;;;;;;;;;;23.90;64.40;;;;;;4780141;29;19933;-73
2022/07/02 13:50:57;;;;;;;;;;;23.90;71.00;;;;;;4788938;29;20307;-69
2022/07/02 13:53:23;;;;;;;;;;;24.00;76.50;;;;;;4788975;29;19991;-70
2022/07/02 13:55:48;;;;;;;;;;;24.20;74.80;;;;;;4772805;30;19925;-69
2022/07/02 13:58:13;;;;;;;;;;;24.40;71.70;;;;;;4775592;29;19932;-70
2022/07/02 14:00:39;;;;;;;;;;;24.50;74.20;;;;;;4799475;29;19925;-69
2022/07/02 14:03:05;;;;;;;;;;;24.70;74.80;;;;;;4784754;29;20004;-70
2022/07/02 14:05:30;;;;;;;;;;;24.70;62.90;;;;;;4783315;29;20237;-70
2022/07/02 14:07:56;;;;;;;;;;;24.70;63.00;;;;;;4799544;29;20367;-70
2022/07/02 14:10:21;;;;;;;;;;;24.70;64.00;;;;;;4797778;29;19933;-70
2022/07/02 14:12:47;;;;;;;;;;;24.50;63.20;;;;;;4794163;29;19926;-70
2022/07/02 14:15:12;;;;;;;;;;;24.50;67.30;;;;;;4796969;29;19925;-67
2022/07/02 14:17:38;;;;;;;;;;;24.30;68.20;;;;;;4779486;29;19977;-69
2022/07/02 14:20:03;;;;;;;;;;;24.50;70.90;;;;;;4797020;29;19936;-70
2022/07/02 14:22:30;;;;;;;;;;;24.60;66.70;;;;;;4797518;29;19925;-71
2022/07/02 14:24:55;;;;;;;;;;;24.80;64.10;;;;;;4796596;29;20317;-71
2022/07/02 14:27:21;;;;;;;;;;;24.90;65.00;;;;;;4780961;29;20022;-71
2022/07/02 14:29:47;;;;;;;;;;;25.00;62.00;;;;;;4795758;29;20287;-70
2022/07/02 14:32:12;;;;;;;;;;;24.90;61.80;;;;;;4796429;29;20023;-72
2022/07/02 14:34:38;;;;;;;;;;;24.90;66.00;;;;;;4776633;29;20021;-70
2022/07/02 14:37:03;;;;;;;;;;;24.90;64.30;;;;;;4790521;29;19929;-70
2022/07/02 14:39:30;;;;;;;;;;;24.70;62.00;;;;;;4797716;29;19932;-69
2022/07/02 14:41:56;;;;;;;;;;;24.70;63.00;;;;;;4796034;29;19926;-68
2022/07/02 14:44:22;;;;;;;;;;;24.60;62.80;;;;;;4791514;29;19925;-70
2022/07/02 14:46:47;;;;;;;;;;;24.70;61.10;;;;;;4797362;29;20305;-70
2022/07/02 14:49:12;;;;;;;;;;;24.60;61.20;;;;;;4779740;29;19929;-70
2022/07/02 14:51:38;;;;;;;;;;;24.60;62.70;;;;;;4764397;29;19936;-71
2022/07/02 14:54:04;;;;;;;;;;;24.60;63.10;;;;;;4795298;29;20411;-70
2022/07/02 14:56:29;;;;;;;;;;;24.60;63.20;;;;;;4783453;29;19969;-70
2022/07/02 14:58:55;;;;;;;;;;;24.60;59.80;;;;;;4782318;29;19933;-68
2022/07/02 15:01:20;;;;;;;;;;;24.60;66.80;;;;;;4795111;29;19932;-69